sensor_id;sensor_type;location;lat;lon;timestamp;P1;P2;P0
29062;PMS5003;71206;48.564;-123.458;2023-12-20T00:01:15;15;15;
29062;PMS5003;71206;48.564;-123.458;2023-12-20T00:03:41;33;23;
29062;PMS5003;71206;48.564;-123.458;2023-12-20T00:06:06;20;19;
29062;PMS5003;71206;48.564;-123.458;2023-12-20T00:08:31;21;20;
29062;PMS5003;71206;48.564;-123.458;2023-12-20T00:10:57;35;31;
29062;PMS5003;71206;48.564;-123.458;2023-12-20T00:13:22;30;28;
29062;PMS5003;71206;48.564;-123.458;2023-12-20T00:15:48;56;48;
29062;PMS5003;71206;48.564;-123.458;2023-12-20T00:18:13;55;47;
29062;PMS5003;71206;48.564;-123.458;2023-12-20T00:20:38;46;41;
29062;PMS5003;71206;48.564;-123.458;2023-12-20T00:23:04;31;27;
29062;PMS5003;71206;48.564;-123.458;2023-12-20T00:25:30;24;24;
29062;PMS5003;71206;48.564;-123.458;2023-12-20T00:27:54;56;50;
29062;PMS5003;71206;48.564;-123.458;2023-12-20T00:30:20;45;40;
29062;PMS5003;71206;48.564;-123.458;2023-12-20T00:32:49;74;61;
29062;PMS5003;71206;48.564;-123.458;2023-12-20T00:35:11;81;69;
29062;PMS5003;71206;48.564;-123.458;2023-12-20T00:37:37;70;59;
29062;PMS5003;71206;48.564;-123.458;2023-12-20T00:40:03;86;65;
29062;PMS5003;71206;48.564;-123.458;2023-12-20T00:42:29;71;58;
29062;PMS5003;71206;48.564;-123.458;2023-12-20T00:44:53;33;33;
29062;PMS5003;71206;48.564;-123.458;2023-12-20T00:47:19;48;41;
29062;PMS5003;71206;48.564;-123.458;2023-12-20T00:49:45;52;43;
29062;PMS5003;71206;48.564;-123.458;2023-12-20T00:52:10;53;48;
29062;PMS5003;71206;48.564;-123.458;2023-12-20T00:54:35;60;48;
29062;PMS5003;71206;48.564;-123.458;2023-12-20T00:57:01;63;52;
29062;PMS5003;71206;48.564;-123.458;2023-12-20T00:59:29;33;29;
29062;PMS5003;71206;48.564;-123.458;2023-12-20T01:01:51;37;31;
29062;PMS5003;71206;48.564;-123.458;2023-12-20T01:04:16;29;23;
29062;PMS5003;71206;48.564;-123.458;2023-12-20T01:06:42;20;17;
29062;PMS5003;71206;48.564;-123.458;2023-12-20T01:09:09;21;21;
29062;PMS5003;71206;48.564;-123.458;2023-12-20T01:11:32;24;23;
29062;PMS5003;71206;48.564;-123.458;2023-12-20T01:13:58;36;33;
29062;PMS5003;71206;48.564;-123.458;2023-12-20T01:16:23;33;28;
29062;PMS5003;71206;48.564;-123.458;2023-12-20T01:18:48;36;33;
29062;PMS5003;71206;48.564;-123.458;2023-12-20T01:21:14;33;30;
29062;PMS5003;71206;48.564;-123.458;2023-12-20T01:23:40;34;33;
29062;PMS5003;71206;48.564;-123.458;2023-12-20T01:26:05;35;33;
29062;PMS5003;71206;48.564;-123.458;2023-12-20T01:28:30;29;28;
29062;PMS5003;71206;48.564;-123.458;2023-12-20T01:30:56;30;26;
29062;PMS5003;71206;48.564;-123.458;2023-12-20T01:33:23;34;33;
29062;PMS5003;71206;48.564;-123.458;2023-12-20T01:35:49;34;31;
29062;PMS5003;71206;48.564;-123.458;2023-12-20T01:38:13;36;33;
29062;PMS5003;71206;48.564;-123.458;2023-12-20T01:40:39;36;30;
29062;PMS5003;71206;48.564;-123.458;2023-12-20T01:43:06;40;36;
29062;PMS5003;71206;48.564;-123.458;2023-12-20T01:45:32;54;46;
29062;PMS5003;71206;48.564;-123.458;2023-12-20T01:47:56;46;40;
29062;PMS5003;71206;48.564;-123.458;2023-12-20T01:50:21;47;42;
29062;PMS5003;71206;48.564;-123.458;2023-12-20T01:52:46;51;43;
29062;PMS5003;71206;48.564;-123.458;2023-12-20T01:55:12;48;44;
29062;PMS5003;71206;48.564;-123.458;2023-12-20T01:57:40;37;34;
29062;PMS5003;71206;48.564;-123.458;2023-12-20T02:00:03;41;39;
29062;PMS5003;71206;48.564;-123.458;2023-12-20T02:02:29;35;34;
29062;PMS5003;71206;48.564;-123.458;2023-12-20T02:04:55;43;38;
29062;PMS5003;71206;48.564;-123.458;2023-12-20T02:07:20;37;31;
29062;PMS5003;71206;48.564;-123.458;2023-12-20T02:09:46;43;36;
29062;PMS5003;71206;48.564;-123.458;2023-12-20T02:12:11;46;39;
29062;PMS5003;71206;48.564;-123.458;2023-12-20T02:14:36;53;46;
29062;PMS5003;71206;48.564;-123.458;2023-12-20T02:17:02;42;38;
29062;PMS5003;71206;48.564;-123.458;2023-12-20T02:19:27;49;44;
29062;PMS5003;71206;48.564;-123.458;2023-12-20T02:24:18;55;47;
29062;PMS5003;71206;48.564;-123.458;2023-12-20T02:26:43;53;45;
29062;PMS5003;71206;48.564;-123.458;2023-12-20T02:29:08;46;40;
29062;PMS5003;71206;48.564;-123.458;2023-12-20T02:31:33;45;39;
29062;PMS5003;71206;48.564;-123.458;2023-12-20T02:33:58;47;41;
29062;PMS5003;71206;48.564;-123.458;2023-12-20T02:36:24;44;39;
29062;PMS5003;71206;48.564;-123.458;2023-12-20T02:38:50;45;37;
29062;PMS5003;71206;48.564;-123.458;2023-12-20T02:41:14;40;38;
29062;PMS5003;71206;48.564;-123.458;2023-12-20T02:43:39;36;36;
29062;PMS5003;71206;48.564;-123.458;2023-12-20T02:46:05;40;39;
29062;PMS5003;71206;48.564;-123.458;2023-12-20T02:48:31;41;40;
29062;PMS5003;71206;48.564;-123.458;2023-12-20T02:50:55;46;40;
29062;PMS5003;71206;48.564;-123.458;2023-12-20T02:53:21;39;33;
29062;PMS5003;71206;48.564;-123.458;2023-12-20T02:55:46;37;34;
29062;PMS5003;71206;48.564;-123.458;2023-12-20T02:58:11;35;29;
29062;PMS5003;71206;48.564;-123.458;2023-12-20T03:00:41;32;28;
29062;PMS5003;71206;48.564;-123.458;2023-12-20T03:03:02;39;32;
29062;PMS5003;71206;48.564;-123.458;2023-12-20T03:05:28;40;34;
29062;PMS5003;71206;48.564;-123.458;2023-12-20T03:07:57;33;27;
29062;PMS5003;71206;48.564;-123.458;2023-12-20T03:10:19;35;31;
29062;PMS5003;71206;48.564;-123.458;2023-12-20T03:12:44;29;26;
29062;PMS5003;71206;48.564;-123.458;2023-12-20T03:15:10;37;34;
29062;PMS5003;71206;48.564;-123.458;2023-12-20T03:17:35;28;28;
29062;PMS5003;71206;48.564;-123.458;2023-12-20T03:20:01;31;28;
29062;PMS5003;71206;48.564;-123.458;2023-12-20T03:22:30;37;31;
29062;PMS5003;71206;48.564;-123.458;2023-12-20T03:24:51;29;28;
29062;PMS5003;71206;48.564;-123.458;2023-12-20T03:27:17;32;26;
29062;PMS5003;71206;48.564;-123.458;2023-12-20T03:29:42;30;27;
29062;PMS5003;71206;48.564;-123.458;2023-12-20T03:32:07;32;29;
29062;PMS5003;71206;48.564;-123.458;2023-12-20T03:34:33;40;33;
29062;PMS5003;71206;48.564;-123.458;2023-12-20T03:36:58;36;35;
29062;PMS5003;71206;48.564;-123.458;2023-12-20T03:39:24;40;35;
29062;PMS5003;71206;48.564;-123.458;2023-12-20T03:41:51;34;30;
29062;PMS5003;71206;48.564;-123.458;2023-12-20T03:44:15;37;32;
29062;PMS5003;71206;48.564;-123.458;2023-12-20T03:46:41;28;24;
29062;PMS5003;71206;48.564;-123.458;2023-12-20T03:49:11;24;22;
29062;PMS5003;71206;48.564;-123.458;2023-12-20T03:51:31;27;22;
29062;PMS5003;71206;48.564;-123.458;2023-12-20T03:53:57;40;36;
29062;PMS5003;71206;48.564;-123.458;2023-12-20T03:56:22;41;36;
29062;PMS5003;71206;48.564;-123.458;2023-12-20T03:58:47;39;39;
29062;PMS5003;71206;48.564;-123.458;2023-12-20T04:01:13;56;48;
29062;PMS5003;71206;48.564;-123.458;2023-12-20T04:03:39;64;53;
29062;PMS5003;71206;48.564;-123.458;2023-12-20T04:06:03;56;43;
29062;PMS5003;71206;48.564;-123.458;2023-12-20T04:08:29;57;46;
29062;PMS5003;71206;48.564;-123.458;2023-12-20T04:10:53;53;44;
29062;PMS5003;71206;48.564;-123.458;2023-12-20T04:13:20;57;44;
29062;PMS5003;71206;48.564;-123.458;2023-12-20T04:15:46;65;55;
29062;PMS5003;71206;48.564;-123.458;2023-12-20T04:18:10;49;43;
29062;PMS5003;71206;48.564;-123.458;2023-12-20T04:20:37;37;35;
29062;PMS5003;71206;48.564;-123.458;2023-12-20T04:23:01;42;38;
29062;PMS5003;71206;48.564;-123.458;2023-12-20T04:25:26;32;30;
29062;PMS5003;71206;48.564;-123.458;2023-12-20T04:27:52;25;24;
29062;PMS5003;71206;48.564;-123.458;2023-12-20T04:30:18;32;26;
29062;PMS5003;71206;48.564;-123.458;2023-12-20T04:32:44;32;29;
29062;PMS5003;71206;48.564;-123.458;2023-12-20T04:35:08;35;30;
29062;PMS5003;71206;48.564;-123.458;2023-12-20T04:37:34;29;27;
29062;PMS5003;71206;48.564;-123.458;2023-12-20T04:39:59;29;28;
29062;PMS5003;71206;48.564;-123.458;2023-12-20T04:42:24;34;33;
29062;PMS5003;71206;48.564;-123.458;2023-12-20T04:44:49;40;36;
29062;PMS5003;71206;48.564;-123.458;2023-12-20T04:47:15;30;28;
29062;PMS5003;71206;48.564;-123.458;2023-12-20T04:49:40;30;28;
29062;PMS5003;71206;48.564;-123.458;2023-12-20T04:52:06;42;36;
29062;PMS5003;71206;48.564;-123.458;2023-12-20T04:54:32;29;28;
29062;PMS5003;71206;48.564;-123.458;2023-12-20T04:56:58;42;38;
29062;PMS5003;71206;48.564;-123.458;2023-12-20T04:59:23;38;35;
29062;PMS5003;71206;48.564;-123.458;2023-12-20T05:01:48;43;37;
29062;PMS5003;71206;48.564;-123.458;2023-12-20T05:04:14;41;38;
29062;PMS5003;71206;48.564;-123.458;2023-12-20T05:06:40;42;37;
29062;PMS5003;71206;48.564;-123.458;2023-12-20T05:09:05;30;29;
29062;PMS5003;71206;48.564;-123.458;2023-12-20T05:11:30;37;33;
29062;PMS5003;71206;48.564;-123.458;2023-12-20T05:13:56;39;38;
29062;PMS5003;71206;48.564;-123.458;2023-12-20T05:16:21;45;39;
29062;PMS5003;71206;48.564;-123.458;2023-12-20T05:18:47;44;38;
29062;PMS5003;71206;48.564;-123.458;2023-12-20T05:21:17;51;44;
29062;PMS5003;71206;48.564;-123.458;2023-12-20T05:23:38;56;46;
29062;PMS5003;71206;48.564;-123.458;2023-12-20T05:26:04;65;54;
29062;PMS5003;71206;48.564;-123.458;2023-12-20T05:28:29;48;42;
29062;PMS5003;71206;48.564;-123.458;2023-12-20T05:30:54;37;33;
29062;PMS5003;71206;48.564;-123.458;2023-12-20T05:33:19;40;36;
29062;PMS5003;71206;48.564;-123.458;2023-12-20T05:35:46;53;42;
29062;PMS5003;71206;48.564;-123.458;2023-12-20T05:38:11;38;37;
29062;PMS5003;71206;48.564;-123.458;2023-12-20T05:40:37;44;40;
29062;PMS5003;71206;48.564;-123.458;2023-12-20T05:43:02;43;38;
29062;PMS5003;71206;48.564;-123.458;2023-12-20T05:45:28;43;36;
29062;PMS5003;71206;48.564;-123.458;2023-12-20T05:47:53;56;51;
29062;PMS5003;71206;48.564;-123.458;2023-12-20T05:50:19;50;46;
29062;PMS5003;71206;48.564;-123.458;2023-12-20T05:52:46;44;38;
29062;PMS5003;71206;48.564;-123.458;2023-12-20T05:55:11;54;50;
29062;PMS5003;71206;48.564;-123.458;2023-12-20T05:57:36;51;44;
29062;PMS5003;71206;48.564;-123.458;2023-12-20T06:00:02;70;58;
29062;PMS5003;71206;48.564;-123.458;2023-12-20T06:02:28;57;53;
29062;PMS5003;71206;48.564;-123.458;2023-12-20T06:04:53;60;50;
29062;PMS5003;71206;48.564;-123.458;2023-12-20T06:07:18;64;52;
29062;PMS5003;71206;48.564;-123.458;2023-12-20T06:09:44;57;49;
29062;PMS5003;71206;48.564;-123.458;2023-12-20T06:12:09;38;31;
29062;PMS5003;71206;48.564;-123.458;2023-12-20T06:14:34;46;39;
29062;PMS5003;71206;48.564;-123.458;2023-12-20T06:17:00;44;40;
29062;PMS5003;71206;48.564;-123.458;2023-12-20T06:19:25;38;38;
29062;PMS5003;71206;48.564;-123.458;2023-12-20T06:21:51;33;31;
29062;PMS5003;71206;48.564;-123.458;2023-12-20T06:24:20;41;35;
29062;PMS5003;71206;48.564;-123.458;2023-12-20T06:26:42;38;33;
29062;PMS5003;71206;48.564;-123.458;2023-12-20T06:29:07;32;30;
29062;PMS5003;71206;48.564;-123.458;2023-12-20T06:31:32;39;36;
29062;PMS5003;71206;48.564;-123.458;2023-12-20T06:33:58;31;30;
29062;PMS5003;71206;48.564;-123.458;2023-12-20T06:36:23;31;23;
29062;PMS5003;71206;48.564;-123.458;2023-12-20T06:38:49;29;26;
29062;PMS5003;71206;48.564;-123.458;2023-12-20T06:41:14;28;25;
29062;PMS5003;71206;48.564;-123.458;2023-12-20T06:43:39;24;22;
29062;PMS5003;71206;48.564;-123.458;2023-12-20T06:46:05;25;23;
29062;PMS5003;71206;48.564;-123.458;2023-12-20T06:48:31;22;22;
29062;PMS5003;71206;48.564;-123.458;2023-12-20T06:50:56;27;25;
29062;PMS5003;71206;48.564;-123.458;2023-12-20T06:53:22;29;28;
29062;PMS5003;71206;48.564;-123.458;2023-12-20T06:55:47;26;24;
29062;PMS5003;71206;48.564;-123.458;2023-12-20T06:58:12;25;23;
29062;PMS5003;71206;48.564;-123.458;2023-12-20T07:00:37;23;19;
29062;PMS5003;71206;48.564;-123.458;2023-12-20T07:03:04;21;18;
29062;PMS5003;71206;48.564;-123.458;2023-12-20T07:05:29;22;19;
29062;PMS5003;71206;48.564;-123.458;2023-12-20T07:07:55;29;24;
29062;PMS5003;71206;48.564;-123.458;2023-12-20T07:10:21;25;23;
29062;PMS5003;71206;48.564;-123.458;2023-12-20T07:12:46;19;19;
29062;PMS5003;71206;48.564;-123.458;2023-12-20T07:15:12;25;19;
29062;PMS5003;71206;48.564;-123.458;2023-12-20T07:17:37;48;40;
29062;PMS5003;71206;48.564;-123.458;2023-12-20T07:20:05;49;43;
29062;PMS5003;71206;48.564;-123.458;2023-12-20T07:22:28;26;24;
29062;PMS5003;71206;48.564;-123.458;2023-12-20T07:24:53;33;29;
29062;PMS5003;71206;48.564;-123.458;2023-12-20T07:27:19;30;24;
29062;PMS5003;71206;48.564;-123.458;2023-12-20T07:29:44;29;24;
29062;PMS5003;71206;48.564;-123.458;2023-12-20T07:32:10;30;28;
29062;PMS5003;71206;48.564;-123.458;2023-12-20T07:34:36;29;24;
29062;PMS5003;71206;48.564;-123.458;2023-12-20T07:37:01;32;26;
29062;PMS5003;71206;48.564;-123.458;2023-12-20T07:39:27;30;26;
29062;PMS5003;71206;48.564;-123.458;2023-12-20T07:41:56;24;21;
29062;PMS5003;71206;48.564;-123.458;2023-12-20T07:44:18;29;28;
29062;PMS5003;71206;48.564;-123.458;2023-12-20T07:46:43;24;21;
29062;PMS5003;71206;48.564;-123.458;2023-12-20T07:49:09;29;25;
29062;PMS5003;71206;48.564;-123.458;2023-12-20T07:51:34;24;22;
29062;PMS5003;71206;48.564;-123.458;2023-12-20T07:54:01;19;19;
29062;PMS5003;71206;48.564;-123.458;2023-12-20T07:56:26;43;35;
29062;PMS5003;71206;48.564;-123.458;2023-12-20T07:58:52;34;21;
29062;PMS5003;71206;48.564;-123.458;2023-12-20T08:01:17;24;22;
29062;PMS5003;71206;48.564;-123.458;2023-12-20T08:03:42;21;20;
29062;PMS5003;71206;48.564;-123.458;2023-12-20T08:06:09;19;18;
29062;PMS5003;71206;48.564;-123.458;2023-12-20T08:08:32;21;17;
29062;PMS5003;71206;48.564;-123.458;2023-12-20T08:11:00;28;21;
29062;PMS5003;71206;48.564;-123.458;2023-12-20T08:13:23;95;74;
29062;PMS5003;71206;48.564;-123.458;2023-12-20T08:15:49;81;67;
29062;PMS5003;71206;48.564;-123.458;2023-12-20T08:18:14;119;86;
29062;PMS5003;71206;48.564;-123.458;2023-12-20T08:20:39;35;26;
29062;PMS5003;71206;48.564;-123.458;2023-12-20T08:23:05;29;25;
29062;PMS5003;71206;48.564;-123.458;2023-12-20T08:25:30;23;22;
29062;PMS5003;71206;48.564;-123.458;2023-12-20T08:27:56;25;23;
29062;PMS5003;71206;48.564;-123.458;2023-12-20T08:30:21;25;22;
29062;PMS5003;71206;48.564;-123.458;2023-12-20T08:32:50;29;24;
29062;PMS5003;71206;48.564;-123.458;2023-12-20T08:35:12;38;30;
29062;PMS5003;71206;48.564;-123.458;2023-12-20T08:37:37;28;23;
29062;PMS5003;71206;48.564;-123.458;2023-12-20T08:40:04;23;19;
29062;PMS5003;71206;48.564;-123.458;2023-12-20T08:42:28;25;23;
29062;PMS5003;71206;48.564;-123.458;2023-12-20T08:44:54;21;18;
29062;PMS5003;71206;48.564;-123.458;2023-12-20T08:47:19;19;17;
29062;PMS5003;71206;48.564;-123.458;2023-12-20T08:49:45;21;18;
29062;PMS5003;71206;48.564;-123.458;2023-12-20T08:52:11;22;21;
29062;PMS5003;71206;48.564;-123.458;2023-12-20T08:54:36;19;16;
29062;PMS5003;71206;48.564;-123.458;2023-12-20T08:57:02;19;16;
29062;PMS5003;71206;48.564;-123.458;2023-12-20T08:59:27;18;17;
29062;PMS5003;71206;48.564;-123.458;2023-12-20T09:01:53;18;17;
29062;PMS5003;71206;48.564;-123.458;2023-12-20T09:04:18;19;18;
29062;PMS5003;71206;48.564;-123.458;2023-12-20T09:06:43;18;15;
29062;PMS5003;71206;48.564;-123.458;2023-12-20T09:09:09;21;18;
29062;PMS5003;71206;48.564;-123.458;2023-12-20T09:11:34;16;16;
29062;PMS5003;71206;48.564;-123.458;2023-12-20T09:14:01;20;18;
29062;PMS5003;71206;48.564;-123.458;2023-12-20T09:16:26;17;15;
29062;PMS5003;71206;48.564;-123.458;2023-12-20T09:18:52;16;15;
29062;PMS5003;71206;48.564;-123.458;2023-12-20T09:21:17;22;21;
29062;PMS5003;71206;48.564;-123.458;2023-12-20T09:23:42;20;18;
29062;PMS5003;71206;48.564;-123.458;2023-12-20T09:26:13;17;16;
29062;PMS5003;71206;48.564;-123.458;2023-12-20T09:28:33;17;15;
29062;PMS5003;71206;48.564;-123.458;2023-12-20T09:30:59;19;17;
29062;PMS5003;71206;48.564;-123.458;2023-12-20T09:33:24;19;16;
29062;PMS5003;71206;48.564;-123.458;2023-12-20T09:35:50;16;15;
29062;PMS5003;71206;48.564;-123.458;2023-12-20T09:38:16;20;16;
29062;PMS5003;71206;48.564;-123.458;2023-12-20T09:40:41;27;20;
29062;PMS5003;71206;48.564;-123.458;2023-12-20T09:43:08;21;18;
29062;PMS5003;71206;48.564;-123.458;2023-12-20T09:45:31;22;20;
29062;PMS5003;71206;48.564;-123.458;2023-12-20T09:47:57;26;22;
29062;PMS5003;71206;48.564;-123.458;2023-12-20T09:50:22;21;19;
29062;PMS5003;71206;48.564;-123.458;2023-12-20T09:52:53;20;20;
29062;PMS5003;71206;48.564;-123.458;2023-12-20T09:55:13;19;17;
29062;PMS5003;71206;48.564;-123.458;2023-12-20T09:57:39;16;14;
29062;PMS5003;71206;48.564;-123.458;2023-12-20T10:00:05;15;14;
29062;PMS5003;71206;48.564;-123.458;2023-12-20T10:02:30;14;13;
29062;PMS5003;71206;48.564;-123.458;2023-12-20T10:04:55;22;22;
29062;PMS5003;71206;48.564;-123.458;2023-12-20T10:07:23;14;13;
29062;PMS5003;71206;48.564;-123.458;2023-12-20T10:09:46;11;10;
29062;PMS5003;71206;48.564;-123.458;2023-12-20T10:12:12;12;10;
29062;PMS5003;71206;48.564;-123.458;2023-12-20T10:14:38;15;13;
29062;PMS5003;71206;48.564;-123.458;2023-12-20T10:17:03;15;14;
29062;PMS5003;71206;48.564;-123.458;2023-12-20T10:19:28;17;16;
29062;PMS5003;71206;48.564;-123.458;2023-12-20T10:21:54;19;19;
29062;PMS5003;71206;48.564;-123.458;2023-12-20T10:24:19;14;11;
29062;PMS5003;71206;48.564;-123.458;2023-12-20T10:26:45;13;11;
29062;PMS5003;71206;48.564;-123.458;2023-12-20T10:29:11;15;14;
29062;PMS5003;71206;48.564;-123.458;2023-12-20T10:31:36;13;13;
29062;PMS5003;71206;48.564;-123.458;2023-12-20T10:34:01;12;12;
29062;PMS5003;71206;48.564;-123.458;2023-12-20T10:36:27;13;11;
29062;PMS5003;71206;48.564;-123.458;2023-12-20T10:38:53;16;14;
29062;PMS5003;71206;48.564;-123.458;2023-12-20T10:41:17;17;15;
29062;PMS5003;71206;48.564;-123.458;2023-12-20T10:43:43;18;16;
29062;PMS5003;71206;48.564;-123.458;2023-12-20T10:46:10;14;13;
29062;PMS5003;71206;48.564;-123.458;2023-12-20T10:48:35;17;16;
29062;PMS5003;71206;48.564;-123.458;2023-12-20T10:51:00;15;13;
29062;PMS5003;71206;48.564;-123.458;2023-12-20T10:53:25;14;13;
29062;PMS5003;71206;48.564;-123.458;2023-12-20T10:55:51;13;13;
29062;PMS5003;71206;48.564;-123.458;2023-12-20T10:58:16;20;15;
29062;PMS5003;71206;48.564;-123.458;2023-12-20T11:00:42;13;13;
29062;PMS5003;71206;48.564;-123.458;2023-12-20T11:03:08;13;13;
29062;PMS5003;71206;48.564;-123.458;2023-12-20T11:05:36;17;14;
29062;PMS5003;71206;48.564;-123.458;2023-12-20T11:07:59;16;14;
29062;PMS5003;71206;48.564;-123.458;2023-12-20T11:10:25;20;15;
29062;PMS5003;71206;48.564;-123.458;2023-12-20T11:12:51;17;17;
29062;PMS5003;71206;48.564;-123.458;2023-12-20T11:15:15;13;13;
29062;PMS5003;71206;48.564;-123.458;2023-12-20T11:17:44;14;14;
29062;PMS5003;71206;48.564;-123.458;2023-12-20T11:20:07;10;9;
29062;PMS5003;71206;48.564;-123.458;2023-12-20T11:22:31;14;14;
29062;PMS5003;71206;48.564;-123.458;2023-12-20T11:24:58;9;9;
29062;PMS5003;71206;48.564;-123.458;2023-12-20T11:27:21;11;11;
29062;PMS5003;71206;48.564;-123.458;2023-12-20T11:29:49;14;14;
29062;PMS5003;71206;48.564;-123.458;2023-12-20T11:34:37;14;14;
29062;PMS5003;71206;48.564;-123.458;2023-12-20T11:37:03;11;11;
29062;PMS5003;71206;48.564;-123.458;2023-12-20T11:39:29;14;14;
29062;PMS5003;71206;48.564;-123.458;2023-12-20T11:41:55;21;20;
29062;PMS5003;71206;48.564;-123.458;2023-12-20T11:44:19;20;16;
29062;PMS5003;71206;48.564;-123.458;2023-12-20T11:46:45;13;13;
29062;PMS5003;71206;48.564;-123.458;2023-12-20T11:49:10;15;14;
29062;PMS5003;71206;48.564;-123.458;2023-12-20T11:51:40;14;13;
29062;PMS5003;71206;48.564;-123.458;2023-12-20T11:54:05;16;15;
29062;PMS5003;71206;48.564;-123.458;2023-12-20T11:56:26;18;17;
29062;PMS5003;71206;48.564;-123.458;2023-12-20T11:58:53;17;17;
29062;PMS5003;71206;48.564;-123.458;2023-12-20T12:01:17;21;17;
29062;PMS5003;71206;48.564;-123.458;2023-12-20T12:03:42;16;15;
29062;PMS5003;71206;48.564;-123.458;2023-12-20T12:06:07;20;16;
29062;PMS5003;71206;48.564;-123.458;2023-12-20T12:08:33;17;15;
29062;PMS5003;71206;48.564;-123.458;2023-12-20T12:10:58;11;10;
29062;PMS5003;71206;48.564;-123.458;2023-12-20T12:13:24;15;13;
29062;PMS5003;71206;48.564;-123.458;2023-12-20T12:15:50;16;14;
29062;PMS5003;71206;48.564;-123.458;2023-12-20T12:18:15;14;13;
29062;PMS5003;71206;48.564;-123.458;2023-12-20T12:20:41;17;16;
29062;PMS5003;71206;48.564;-123.458;2023-12-20T12:23:06;13;10;
29062;PMS5003;71206;48.564;-123.458;2023-12-20T12:25:32;13;12;
29062;PMS5003;71206;48.564;-123.458;2023-12-20T12:27:57;13;12;
29062;PMS5003;71206;48.564;-123.458;2023-12-20T12:30:22;20;14;
29062;PMS5003;71206;48.564;-123.458;2023-12-20T12:32:48;14;13;
29062;PMS5003;71206;48.564;-123.458;2023-12-20T12:35:14;19;16;
29062;PMS5003;71206;48.564;-123.458;2023-12-20T12:37:39;14;12;
29062;PMS5003;71206;48.564;-123.458;2023-12-20T12:40:05;19;16;
29062;PMS5003;71206;48.564;-123.458;2023-12-20T12:42:30;16;13;
29062;PMS5003;71206;48.564;-123.458;2023-12-20T12:44:56;14;13;
29062;PMS5003;71206;48.564;-123.458;2023-12-20T12:47:21;13;13;
29062;PMS5003;71206;48.564;-123.458;2023-12-20T12:49:50;19;14;
29062;PMS5003;71206;48.564;-123.458;2023-12-20T12:52:12;15;11;
29062;PMS5003;71206;48.564;-123.458;2023-12-20T12:54:37;13;13;
29062;PMS5003;71206;48.564;-123.458;2023-12-20T12:57:03;19;15;
29062;PMS5003;71206;48.564;-123.458;2023-12-20T12:59:29;16;11;
29062;PMS5003;71206;48.564;-123.458;2023-12-20T13:01:54;14;14;
29062;PMS5003;71206;48.564;-123.458;2023-12-20T13:04:20;15;13;
29062;PMS5003;71206;48.564;-123.458;2023-12-20T13:06:45;14;11;
29062;PMS5003;71206;48.564;-123.458;2023-12-20T13:09:11;19;16;
29062;PMS5003;71206;48.564;-123.458;2023-12-20T13:11:36;15;14;
29062;PMS5003;71206;48.564;-123.458;2023-12-20T13:14:02;14;14;
29062;PMS5003;71206;48.564;-123.458;2023-12-20T13:16:28;17;14;
29062;PMS5003;71206;48.564;-123.458;2023-12-20T13:18:53;13;11;
29062;PMS5003;71206;48.564;-123.458;2023-12-20T13:21:22;14;13;
29062;PMS5003;71206;48.564;-123.458;2023-12-20T13:23:44;13;10;
29062;PMS5003;71206;48.564;-123.458;2023-12-20T13:26:10;12;8;
29062;PMS5003;71206;48.564;-123.458;2023-12-20T13:28:35;14;13;
29062;PMS5003;71206;48.564;-123.458;2023-12-20T13:31:00;13;12;
29062;PMS5003;71206;48.564;-123.458;2023-12-20T13:33:26;13;12;
29062;PMS5003;71206;48.564;-123.458;2023-12-20T13:35:54;13;13;
29062;PMS5003;71206;48.564;-123.458;2023-12-20T13:38:17;21;16;
29062;PMS5003;71206;48.564;-123.458;2023-12-20T13:40:43;14;14;
29062;PMS5003;71206;48.564;-123.458;2023-12-20T13:43:08;14;14;
29062;PMS5003;71206;48.564;-123.458;2023-12-20T13:45:33;13;12;
29062;PMS5003;71206;48.564;-123.458;2023-12-20T13:47:58;18;14;
29062;PMS5003;71206;48.564;-123.458;2023-12-20T13:50:23;13;12;
29062;PMS5003;71206;48.564;-123.458;2023-12-20T13:52:50;15;14;
29062;PMS5003;71206;48.564;-123.458;2023-12-20T13:55:14;14;14;
29062;PMS5003;71206;48.564;-123.458;2023-12-20T13:57:43;13;12;
29062;PMS5003;71206;48.564;-123.458;2023-12-20T14:00:06;12;10;
29062;PMS5003;71206;48.564;-123.458;2023-12-20T14:02:31;13;13;
29062;PMS5003;71206;48.564;-123.458;2023-12-20T14:04:57;10;10;
29062;PMS5003;71206;48.564;-123.458;2023-12-20T14:07:23;15;13;
29062;PMS5003;71206;48.564;-123.458;2023-12-20T14:09:48;12;10;
29062;PMS5003;71206;48.564;-123.458;2023-12-20T14:12:12;18;13;
29062;PMS5003;71206;48.564;-123.458;2023-12-20T14:14:38;10;10;
29062;PMS5003;71206;48.564;-123.458;2023-12-20T14:17:04;17;15;
29062;PMS5003;71206;48.564;-123.458;2023-12-20T14:19:29;9;9;
29062;PMS5003;71206;48.564;-123.458;2023-12-20T14:21:54;12;10;
29062;PMS5003;71206;48.564;-123.458;2023-12-20T14:24:20;11;8;
29062;PMS5003;71206;48.564;-123.458;2023-12-20T14:26:45;11;7;
29062;PMS5003;71206;48.564;-123.458;2023-12-20T14:29:11;14;12;
29062;PMS5003;71206;48.564;-123.458;2023-12-20T14:31:36;7;7;
29062;PMS5003;71206;48.564;-123.458;2023-12-20T14:34:03;10;10;
29062;PMS5003;71206;48.564;-123.458;2023-12-20T14:36:26;10;9;
29062;PMS5003;71206;48.564;-123.458;2023-12-20T14:38:52;10;10;
29062;PMS5003;71206;48.564;-123.458;2023-12-20T14:41:17;12;10;
29062;PMS5003;71206;48.564;-123.458;2023-12-20T14:43:44;9;9;
29062;PMS5003;71206;48.564;-123.458;2023-12-20T14:46:08;8;8;
29062;PMS5003;71206;48.564;-123.458;2023-12-20T14:48:33;10;10;
29062;PMS5003;71206;48.564;-123.458;2023-12-20T14:50:58;10;10;
29062;PMS5003;71206;48.564;-123.458;2023-12-20T14:53:24;10;9;
29062;PMS5003;71206;48.564;-123.458;2023-12-20T14:55:49;8;8;
29062;PMS5003;71206;48.564;-123.458;2023-12-20T14:58:14;10;9;
29062;PMS5003;71206;48.564;-123.458;2023-12-20T15:00:40;10;10;
29062;PMS5003;71206;48.564;-123.458;2023-12-20T15:03:05;7;7;
29062;PMS5003;71206;48.564;-123.458;2023-12-20T15:05:30;7;7;
29062;PMS5003;71206;48.564;-123.458;2023-12-20T15:07:55;7;7;
29062;PMS5003;71206;48.564;-123.458;2023-12-20T15:10:21;6;6;
29062;PMS5003;71206;48.564;-123.458;2023-12-20T15:12:46;10;9;
29062;PMS5003;71206;48.564;-123.458;2023-12-20T15:15:16;8;8;
29062;PMS5003;71206;48.564;-123.458;2023-12-20T15:17:36;7;7;
29062;PMS5003;71206;48.564;-123.458;2023-12-20T15:20:02;13;9;
29062;PMS5003;71206;48.564;-123.458;2023-12-20T15:22:27;12;12;
29062;PMS5003;71206;48.564;-123.458;2023-12-20T15:24:52;10;9;